sensor_id;sensor_type;location;lat;lon;timestamp;P1;durP1;ratioP1;P2;durP2;ratioP2
9248;SDS011;4660;41.768;26.198;2022-12-10T00:00:16;18.73;;;11.83;;
9248;SDS011;4660;41.768;26.198;2022-12-10T00:02:41;26.50;;;12.93;;
9248;SDS011;4660;41.768;26.198;2022-12-10T00:05:07;25.10;;;11.90;;
9248;SDS011;4660;41.768;26.198;2022-12-10T00:07:33;24.23;;;11.73;;
9248;SDS011;4660;41.768;26.198;2022-12-10T00:09:58;21.23;;;10.70;;
9248;SDS011;4660;41.768;26.198;2022-12-10T00:12:24;26.67;;;10.77;;
9248;SDS011;4660;41.768;26.198;2022-12-10T00:14:49;29.73;;;12.60;;
9248;SDS011;4660;41.768;26.198;2022-12-10T00:17:15;26.27;;;11.43;;
9248;SDS011;4660;41.768;26.198;2022-12-10T00:19:40;24.60;;;10.87;;
9248;SDS011;4660;41.768;26.198;2022-12-10T00:22:06;23.83;;;10.90;;
9248;SDS011;4660;41.768;26.198;2022-12-10T00:24:31;21.30;;;11.23;;
9248;SDS011;4660;41.768;26.198;2022-12-10T00:26:57;24.50;;;11.47;;
9248;SDS011;4660;41.768;26.198;2022-12-10T00:29:23;23.37;;;11.87;;
9248;SDS011;4660;41.768;26.198;2022-12-10T00:31:48;16.80;;;9.60;;
9248;SDS011;4660;41.768;26.198;2022-12-10T00:34:14;19.03;;;8.83;;
9248;SDS011;4660;41.768;26.198;2022-12-10T00:36:40;18.93;;;8.30;;
9248;SDS011;4660;41.768;26.198;2022-12-10T00:39:10;21.00;;;8.73;;
9248;SDS011;4660;41.768;26.198;2022-12-10T00:41:41;17.47;;;8.47;;
9248;SDS011;4660;41.768;26.198;2022-12-10T00:44:06;17.53;;;9.37;;
9248;SDS011;4660;41.768;26.198;2022-12-10T00:46:32;16.07;;;8.93;;
9248;SDS011;4660;41.768;26.198;2022-12-10T00:48:58;19.57;;;9.23;;
9248;SDS011;4660;41.768;26.198;2022-12-10T00:51:25;18.93;;;8.60;;
9248;SDS011;4660;41.768;26.198;2022-12-10T00:53:52;21.67;;;8.93;;
9248;SDS011;4660;41.768;26.198;2022-12-10T00:56:21;14.97;;;8.17;;
9248;SDS011;4660;41.768;26.198;2022-12-10T00:58:48;23.67;;;8.17;;
9248;SDS011;4660;41.768;26.198;2022-12-10T01:01:16;15.83;;;8.43;;
9248;SDS011;4660;41.768;26.198;2022-12-10T01:03:45;20.07;;;8.90;;
9248;SDS011;4660;41.768;26.198;2022-12-10T01:06:18;15.00;;;8.50;;
9248;SDS011;4660;41.768;26.198;2022-12-10T01:08:52;25.93;;;9.40;;
9248;SDS011;4660;41.768;26.198;2022-12-10T01:11:21;18.20;;;8.60;;
9248;SDS011;4660;41.768;26.198;2022-12-10T01:13:47;29.83;;;8.70;;
9248;SDS011;4660;41.768;26.198;2022-12-10T01:16:14;17.43;;;8.57;;
9248;SDS011;4660;41.768;26.198;2022-12-10T01:18:42;24.90;;;9.27;;
9248;SDS011;4660;41.768;26.198;2022-12-10T01:21:09;25.87;;;9.13;;
9248;SDS011;4660;41.768;26.198;2022-12-10T01:23:37;20.87;;;8.80;;
9248;SDS011;4660;41.768;26.198;2022-12-10T01:26:05;22.77;;;8.17;;
9248;SDS011;4660;41.768;26.198;2022-12-10T01:28:32;25.63;;;9.60;;
9248;SDS011;4660;41.768;26.198;2022-12-10T01:31:03;34.10;;;12.40;;
9248;SDS011;4660;41.768;26.198;2022-12-10T01:33:31;34.90;;;11.70;;
9248;SDS011;4660;41.768;26.198;2022-12-10T01:36:01;31.27;;;9.93;;
9248;SDS011;4660;41.768;26.198;2022-12-10T01:38:31;26.73;;;10.03;;
9248;SDS011;4660;41.768;26.198;2022-12-10T01:40:57;18.53;;;8.83;;
9248;SDS011;4660;41.768;26.198;2022-12-10T01:43:24;19.23;;;9.40;;
9248;SDS011;4660;41.768;26.198;2022-12-10T01:45:50;19.77;;;7.63;;
9248;SDS011;4660;41.768;26.198;2022-12-10T01:48:16;25.97;;;9.30;;
9248;SDS011;4660;41.768;26.198;2022-12-10T01:50:42;21.03;;;8.07;;
9248;SDS011;4660;41.768;26.198;2022-12-10T01:53:07;20.17;;;8.10;;
9248;SDS011;4660;41.768;26.198;2022-12-10T01:55:38;25.20;;;8.90;;
9248;SDS011;4660;41.768;26.198;2022-12-10T01:58:06;18.43;;;8.57;;
9248;SDS011;4660;41.768;26.198;2022-12-10T02:00:32;29.40;;;10.83;;
9248;SDS011;4660;41.768;26.198;2022-12-10T02:03:07;23.80;;;8.80;;
9248;SDS011;4660;41.768;26.198;2022-12-10T02:05:43;25.80;;;8.87;;
9248;SDS011;4660;41.768;26.198;2022-12-10T02:16:34;27.47;;;9.60;;
9248;SDS011;4660;41.768;26.198;2022-12-10T02:19:07;19.30;;;8.43;;
9248;SDS011;4660;41.768;26.198;2022-12-10T02:21:43;24.93;;;9.67;;
9248;SDS011;4660;41.768;26.198;2022-12-10T02:24:14;25.90;;;8.20;;
9248;SDS011;4660;41.768;26.198;2022-12-10T02:26:45;26.47;;;9.23;;
9248;SDS011;4660;41.768;26.198;2022-12-10T02:31:44;23.03;;;10.40;;
9248;SDS011;4660;41.768;26.198;2022-12-10T02:34:15;23.17;;;8.87;;
9248;SDS011;4660;41.768;26.198;2022-12-10T02:36:44;25.83;;;10.33;;
9248;SDS011;4660;41.768;26.198;2022-12-10T02:39:14;21.70;;;9.50;;
9248;SDS011;4660;41.768;26.198;2022-12-10T02:41:46;26.17;;;10.43;;
9248;SDS011;4660;41.768;26.198;2022-12-10T02:44:17;22.63;;;8.90;;
9248;SDS011;4660;41.768;26.198;2022-12-10T02:46:44;16.17;;;8.57;;
9248;SDS011;4660;41.768;26.198;2022-12-10T02:49:14;22.53;;;7.63;;
9248;SDS011;4660;41.768;26.198;2022-12-10T02:51:41;20.40;;;8.17;;
9248;SDS011;4660;41.768;26.198;2022-12-10T03:02:29;22.00;;;9.37;;
9248;SDS011;4660;41.768;26.198;2022-12-10T03:08:01;26.93;;;8.60;;
9248;SDS011;4660;41.768;26.198;2022-12-10T03:10:42;15.00;;;7.97;;
9248;SDS011;4660;41.768;26.198;2022-12-10T03:13:13;16.00;;;8.47;;
9248;SDS011;4660;41.768;26.198;2022-12-10T03:15:42;24.27;;;8.80;;
9248;SDS011;4660;41.768;26.198;2022-12-10T03:18:10;21.53;;;9.20;;
9248;SDS011;4660;41.768;26.198;2022-12-10T03:20:38;22.73;;;9.20;;
9248;SDS011;4660;41.768;26.198;2022-12-10T03:23:08;17.53;;;8.83;;
9248;SDS011;4660;41.768;26.198;2022-12-10T03:25:36;23.33;;;9.97;;
9248;SDS011;4660;41.768;26.198;2022-12-10T03:28:03;19.60;;;9.63;;
9248;SDS011;4660;41.768;26.198;2022-12-10T03:30:33;17.03;;;9.57;;
9248;SDS011;4660;41.768;26.198;2022-12-10T03:33:01;17.80;;;8.77;;
9248;SDS011;4660;41.768;26.198;2022-12-10T03:35:27;28.53;;;10.03;;
9248;SDS011;4660;41.768;26.198;2022-12-10T03:37:53;24.10;;;9.23;;
9248;SDS011;4660;41.768;26.198;2022-12-10T03:40:21;17.20;;;7.87;;
9248;SDS011;4660;41.768;26.198;2022-12-10T03:42:49;25.70;;;9.80;;
9248;SDS011;4660;41.768;26.198;2022-12-10T03:45:15;22.20;;;9.57;;
9248;SDS011;4660;41.768;26.198;2022-12-10T03:47:41;22.53;;;10.63;;
9248;SDS011;4660;41.768;26.198;2022-12-10T03:50:07;31.47;;;10.53;;
9248;SDS011;4660;41.768;26.198;2022-12-10T03:52:33;25.27;;;11.30;;
9248;SDS011;4660;41.768;26.198;2022-12-10T03:54:59;27.37;;;10.47;;
9248;SDS011;4660;41.768;26.198;2022-12-10T03:57:25;25.80;;;9.53;;
9248;SDS011;4660;41.768;26.198;2022-12-10T03:59:50;30.57;;;9.17;;
9248;SDS011;4660;41.768;26.198;2022-12-10T04:02:16;25.27;;;10.70;;
9248;SDS011;4660;41.768;26.198;2022-12-10T04:04:41;24.93;;;10.60;;
9248;SDS011;4660;41.768;26.198;2022-12-10T04:07:07;28.73;;;10.17;;
9248;SDS011;4660;41.768;26.198;2022-12-10T04:09:32;24.07;;;7.90;;
9248;SDS011;4660;41.768;26.198;2022-12-10T04:11:58;26.03;;;8.97;;
9248;SDS011;4660;41.768;26.198;2022-12-10T04:14:24;18.90;;;8.30;;
9248;SDS011;4660;41.768;26.198;2022-12-10T04:17:09;19.13;;;9.33;;
9248;SDS011;4660;41.768;26.198;2022-12-10T04:19:35;20.77;;;9.57;;
9248;SDS011;4660;41.768;26.198;2022-12-10T04:22:00;24.73;;;9.67;;
9248;SDS011;4660;41.768;26.198;2022-12-10T04:24:45;26.60;;;11.27;;
9248;SDS011;4660;41.768;26.198;2022-12-10T04:27:38;24.87;;;11.73;;
9248;SDS011;4660;41.768;26.198;2022-12-10T04:30:05;24.97;;;10.30;;
9248;SDS011;4660;41.768;26.198;2022-12-10T04:32:33;22.47;;;10.57;;
9248;SDS011;4660;41.768;26.198;2022-12-10T04:34:59;26.57;;;9.17;;
9248;SDS011;4660;41.768;26.198;2022-12-10T04:37:26;22.17;;;10.00;;
9248;SDS011;4660;41.768;26.198;2022-12-10T04:39:53;22.77;;;10.53;;
9248;SDS011;4660;41.768;26.198;2022-12-10T04:42:19;29.53;;;11.80;;
9248;SDS011;4660;41.768;26.198;2022-12-10T04:44:46;22.70;;;9.70;;
9248;SDS011;4660;41.768;26.198;2022-12-10T04:47:12;26.33;;;10.37;;
9248;SDS011;4660;41.768;26.198;2022-12-10T04:49:37;21.70;;;10.70;;
9248;SDS011;4660;41.768;26.198;2022-12-10T04:52:04;23.20;;;10.13;;
9248;SDS011;4660;41.768;26.198;2022-12-10T04:54:30;30.67;;;10.77;;
9248;SDS011;4660;41.768;26.198;2022-12-10T04:56:56;29.77;;;11.03;;
9248;SDS011;4660;41.768;26.198;2022-12-10T04:59:21;23.20;;;10.30;;
9248;SDS011;4660;41.768;26.198;2022-12-10T05:01:47;37.03;;;10.97;;
9248;SDS011;4660;41.768;26.198;2022-12-10T05:06:53;33.13;;;14.53;;
9248;SDS011;4660;41.768;26.198;2022-12-10T05:09:19;32.67;;;15.70;;
9248;SDS011;4660;41.768;26.198;2022-12-10T05:11:45;34.57;;;16.03;;
9248;SDS011;4660;41.768;26.198;2022-12-10T05:14:12;29.17;;;14.07;;
9248;SDS011;4660;41.768;26.198;2022-12-10T05:16:40;32.80;;;14.33;;
9248;SDS011;4660;41.768;26.198;2022-12-10T05:19:06;30.20;;;12.30;;
9248;SDS011;4660;41.768;26.198;2022-12-10T05:21:31;32.10;;;14.80;;
9248;SDS011;4660;41.768;26.198;2022-12-10T05:24:16;25.90;;;12.50;;
9248;SDS011;4660;41.768;26.198;2022-12-10T05:26:43;27.97;;;13.37;;
9248;SDS011;4660;41.768;26.198;2022-12-10T05:29:09;24.63;;;13.20;;
9248;SDS011;4660;41.768;26.198;2022-12-10T05:31:35;29.23;;;14.17;;
9248;SDS011;4660;41.768;26.198;2022-12-10T05:34:03;24.10;;;13.00;;
9248;SDS011;4660;41.768;26.198;2022-12-10T05:39:07;33.97;;;15.87;;
9248;SDS011;4660;41.768;26.198;2022-12-10T05:41:37;32.83;;;16.07;;
9248;SDS011;4660;41.768;26.198;2022-12-10T05:44:06;35.00;;;17.73;;
9248;SDS011;4660;41.768;26.198;2022-12-10T05:46:33;46.60;;;24.00;;
9248;SDS011;4660;41.768;26.198;2022-12-10T05:49:00;48.13;;;20.07;;
9248;SDS011;4660;41.768;26.198;2022-12-10T05:51:28;52.73;;;20.03;;
9248;SDS011;4660;41.768;26.198;2022-12-10T05:53:56;41.27;;;18.30;;
9248;SDS011;4660;41.768;26.198;2022-12-10T05:56:24;41.50;;;20.20;;
9248;SDS011;4660;41.768;26.198;2022-12-10T05:58:52;31.23;;;16.20;;
9248;SDS011;4660;41.768;26.198;2022-12-10T06:01:21;28.37;;;12.40;;
9248;SDS011;4660;41.768;26.198;2022-12-10T06:03:52;30.33;;;10.87;;
9248;SDS011;4660;41.768;26.198;2022-12-10T06:06:22;19.60;;;10.40;;
9248;SDS011;4660;41.768;26.198;2022-12-10T06:08:53;23.20;;;10.73;;
9248;SDS011;4660;41.768;26.198;2022-12-10T06:11:20;22.27;;;11.17;;
9248;SDS011;4660;41.768;26.198;2022-12-10T06:13:52;22.27;;;11.20;;
9248;SDS011;4660;41.768;26.198;2022-12-10T06:16:20;28.57;;;11.93;;
9248;SDS011;4660;41.768;26.198;2022-12-10T06:18:46;26.30;;;11.23;;
9248;SDS011;4660;41.768;26.198;2022-12-10T06:21:13;26.57;;;11.37;;
9248;SDS011;4660;41.768;26.198;2022-12-10T06:23:41;25.23;;;10.60;;
9248;SDS011;4660;41.768;26.198;2022-12-10T06:26:13;27.13;;;9.80;;
9248;SDS011;4660;41.768;26.198;2022-12-10T06:28:44;19.57;;;9.37;;
9248;SDS011;4660;41.768;26.198;2022-12-10T06:31:13;23.60;;;9.87;;
9248;SDS011;4660;41.768;26.198;2022-12-10T06:33:39;23.30;;;9.73;;
9248;SDS011;4660;41.768;26.198;2022-12-10T06:36:07;27.90;;;11.03;;
9248;SDS011;4660;41.768;26.198;2022-12-10T06:41:13;30.83;;;12.73;;
9248;SDS011;4660;41.768;26.198;2022-12-10T06:43:49;25.33;;;12.30;;
9248;SDS011;4660;41.768;26.198;2022-12-10T06:46:18;26.67;;;11.93;;
9248;SDS011;4660;41.768;26.198;2022-12-10T06:49:06;30.13;;;12.37;;
9248;SDS011;4660;41.768;26.198;2022-12-10T06:51:36;27.60;;;11.77;;
9248;SDS011;4660;41.768;26.198;2022-12-10T06:54:04;23.17;;;10.60;;
9248;SDS011;4660;41.768;26.198;2022-12-10T06:56:33;21.47;;;9.50;;
9248;SDS011;4660;41.768;26.198;2022-12-10T06:58:58;25.77;;;8.97;;
9248;SDS011;4660;41.768;26.198;2022-12-10T07:01:28;20.63;;;9.57;;
9248;SDS011;4660;41.768;26.198;2022-12-10T07:04:15;17.97;;;9.50;;
9248;SDS011;4660;41.768;26.198;2022-12-10T07:06:49;17.63;;;10.60;;
9248;SDS011;4660;41.768;26.198;2022-12-10T07:09:19;30.70;;;12.87;;
9248;SDS011;4660;41.768;26.198;2022-12-10T07:11:57;24.30;;;14.50;;
9248;SDS011;4660;41.768;26.198;2022-12-10T07:14:30;27.67;;;11.27;;
9248;SDS011;4660;41.768;26.198;2022-12-10T07:16:57;19.43;;;9.77;;
9248;SDS011;4660;41.768;26.198;2022-12-10T07:19:31;19.93;;;8.93;;
9248;SDS011;4660;41.768;26.198;2022-12-10T07:22:01;21.13;;;8.77;;
9248;SDS011;4660;41.768;26.198;2022-12-10T07:24:30;19.17;;;9.60;;
9248;SDS011;4660;41.768;26.198;2022-12-10T07:27:04;20.17;;;9.07;;
9248;SDS011;4660;41.768;26.198;2022-12-10T07:29:34;22.07;;;9.37;;
9248;SDS011;4660;41.768;26.198;2022-12-10T07:32:11;26.07;;;9.27;;
9248;SDS011;4660;41.768;26.198;2022-12-10T07:34:40;19.47;;;9.10;;
9248;SDS011;4660;41.768;26.198;2022-12-10T07:37:08;21.80;;;8.50;;
9248;SDS011;4660;41.768;26.198;2022-12-10T07:39:37;23.67;;;9.47;;
9248;SDS011;4660;41.768;26.198;2022-12-10T07:42:08;27.53;;;10.17;;
9248;SDS011;4660;41.768;26.198;2022-12-10T07:45:03;21.20;;;9.20;;
9248;SDS011;4660;41.768;26.198;2022-12-10T07:48:22;16.97;;;8.37;;
9248;SDS011;4660;41.768;26.198;2022-12-10T07:51:24;21.43;;;7.50;;
9248;SDS011;4660;41.768;26.198;2022-12-10T07:54:54;22.50;;;8.33;;
9248;SDS011;4660;41.768;26.198;2022-12-10T07:58:07;19.70;;;8.80;;
9248;SDS011;4660;41.768;26.198;2022-12-10T08:03:20;21.07;;;7.73;;
9248;SDS011;4660;41.768;26.198;2022-12-10T08:06:27;13.33;;;5.87;;
9248;SDS011;4660;41.768;26.198;2022-12-10T08:09:37;17.33;;;7.00;;
9248;SDS011;4660;41.768;26.198;2022-12-10T08:12:05;19.43;;;7.17;;
9248;SDS011;4660;41.768;26.198;2022-12-10T08:14:31;12.10;;;6.03;;
9248;SDS011;4660;41.768;26.198;2022-12-10T08:17:10;16.53;;;7.17;;
9248;SDS011;4660;41.768;26.198;2022-12-10T08:19:39;19.23;;;7.00;;
9248;SDS011;4660;41.768;26.198;2022-12-10T08:22:06;16.65;;;6.20;;
9248;SDS011;4660;41.768;26.198;2022-12-10T08:24:56;21.07;;;6.20;;
9248;SDS011;4660;41.768;26.198;2022-12-10T08:27:45;17.20;;;7.00;;
9248;SDS011;4660;41.768;26.198;2022-12-10T08:30:34;15.07;;;6.83;;
9248;SDS011;4660;41.768;26.198;2022-12-10T08:33:07;23.53;;;7.80;;
9248;SDS011;4660;41.768;26.198;2022-12-10T08:36:35;16.00;;;6.80;;
9248;SDS011;4660;41.768;26.198;2022-12-10T08:39:40;14.40;;;8.03;;
9248;SDS011;4660;41.768;26.198;2022-12-10T08:42:51;22.67;;;7.63;;
9248;SDS011;4660;41.768;26.198;2022-12-10T08:45:57;11.63;;;6.37;;
9248;SDS011;4660;41.768;26.198;2022-12-10T08:48:57;20.92;;;6.22;;
9248;SDS011;4660;41.768;26.198;2022-12-10T08:51:28;15.40;;;7.57;;
9248;SDS011;4660;41.768;26.198;2022-12-10T08:53:55;14.90;;;7.28;;
9248;SDS011;4660;41.768;26.198;2022-12-10T08:56:23;14.18;;;7.38;;
9248;SDS011;4660;41.768;26.198;2022-12-10T08:58:51;21.03;;;7.13;;
9248;SDS011;4660;41.768;26.198;2022-12-10T09:01:25;18.42;;;6.55;;
9248;SDS011;4660;41.768;26.198;2022-12-10T09:03:55;16.00;;;6.20;;
9248;SDS011;4660;41.768;26.198;2022-12-10T09:06:43;18.87;;;6.90;;
9248;SDS011;4660;41.768;26.198;2022-12-10T09:09:09;12.77;;;5.73;;
9248;SDS011;4660;41.768;26.198;2022-12-10T09:12:02;18.13;;;6.37;;
9248;SDS011;4660;41.768;26.198;2022-12-10T09:14:36;19.70;;;7.03;;
9248;SDS011;4660;41.768;26.198;2022-12-10T09:17:22;25.33;;;9.38;;
9248;SDS011;4660;41.768;26.198;2022-12-10T09:19:53;14.40;;;7.33;;
9248;SDS011;4660;41.768;26.198;2022-12-10T09:29:01;14.38;;;7.15;;
9248;SDS011;4660;41.768;26.198;2022-12-10T09:35:07;19.17;;;6.60;;
9248;SDS011;4660;41.768;26.198;2022-12-10T09:37:59;17.33;;;6.17;;
9248;SDS011;4660;41.768;26.198;2022-12-10T09:41:00;21.37;;;6.10;;
9248;SDS011;4660;41.768;26.198;2022-12-10T09:44:17;17.95;;;5.40;;
9248;SDS011;4660;41.768;26.198;2022-12-10T09:46:54;16.87;;;7.03;;
9248;SDS011;4660;41.768;26.198;2022-12-10T09:49:45;16.67;;;5.40;;
9248;SDS011;4660;41.768;26.198;2022-12-10T09:55:24;15.87;;;5.43;;
9248;SDS011;4660;41.768;26.198;2022-12-10T09:58:47;16.40;;;5.95;;
9248;SDS011;4660;41.768;26.198;2022-12-10T10:01:14;12.73;;;4.88;;
9248;SDS011;4660;41.768;26.198;2022-12-10T10:03:44;18.83;;;5.05;;
9248;SDS011;4660;41.768;26.198;2022-12-10T10:06:13;14.47;;;5.13;;
9248;SDS011;4660;41.768;26.198;2022-12-10T10:08:47;17.52;;;4.50;;
9248;SDS011;4660;41.768;26.198;2022-12-10T10:11:18;12.45;;;5.15;;
9248;SDS011;4660;41.768;26.198;2022-12-10T10:13:52;16.75;;;7.35;;
9248;SDS011;4660;41.768;26.198;2022-12-10T10:16:31;23.25;;;7.40;;
9248;SDS011;4660;41.768;26.198;2022-12-10T10:21:48;11.70;;;6.10;;
9248;SDS011;4660;41.768;26.198;2022-12-10T10:24:46;15.90;;;6.13;;
9248;SDS011;4660;41.768;26.198;2022-12-10T10:27:41;17.10;;;4.72;;
9248;SDS011;4660;41.768;26.198;2022-12-10T10:30:18;14.93;;;4.43;;
9248;SDS011;4660;41.768;26.198;2022-12-10T10:32:51;19.65;;;5.15;;
9248;SDS011;4660;41.768;26.198;2022-12-10T10:35:24;21.27;;;5.05;;
9248;SDS011;4660;41.768;26.198;2022-12-10T10:38:05;18.42;;;5.65;;
9248;SDS011;4660;41.768;26.198;2022-12-10T10:40:45;16.17;;;5.05;;
9248;SDS011;4660;41.768;26.198;2022-12-10T10:43:40;13.95;;;4.40;;
9248;SDS011;4660;41.768;26.198;2022-12-10T10:52:36;16.75;;;5.00;;
9248;SDS011;4660;41.768;26.198;2022-12-10T10:55:32;16.45;;;5.47;;
9248;SDS011;4660;41.768;26.198;2022-12-10T10:58:05;11.20;;;5.20;;
9248;SDS011;4660;41.768;26.198;2022-12-10T11:00:58;16.50;;;8.25;;
9248;SDS011;4660;41.768;26.198;2022-12-10T11:07:04;17.42;;;5.40;;
9248;SDS011;4660;41.768;26.198;2022-12-10T11:09:59;19.23;;;5.68;;
9248;SDS011;4660;41.768;26.198;2022-12-10T11:13:15;15.95;;;6.80;;
9248;SDS011;4660;41.768;26.198;2022-12-10T11:15:58;24.00;;;7.25;;
9248;SDS011;4660;41.768;26.198;2022-12-10T11:21:48;16.45;;;4.88;;
9248;SDS011;4660;41.768;26.198;2022-12-10T11:24:16;20.08;;;6.45;;
9248;SDS011;4660;41.768;26.198;2022-12-10T11:37:31;11.95;;;4.03;;
9248;SDS011;4660;41.768;26.198;2022-12-10T11:43:20;19.40;;;4.40;;
9248;SDS011;4660;41.768;26.198;2022-12-10T12:01:13;15.32;;;3.78;;
9248;SDS011;4660;41.768;26.198;2022-12-10T12:04:00;23.45;;;5.00;;
9248;SDS011;4660;41.768;26.198;2022-12-10T12:09:23;16.70;;;3.65;;
9248;SDS011;4660;41.768;26.198;2022-12-10T12:13:14;12.50;;;3.33;;
9248;SDS011;4660;41.768;26.198;2022-12-10T12:16:07;10.50;;;3.35;;
9248;SDS011;4660;41.768;26.198;2022-12-10T12:18:55;13.57;;;4.60;;
9248;SDS011;4660;41.768;26.198;2022-12-10T12:25:10;12.48;;;4.07;;
9248;SDS011;4660;41.768;26.198;2022-12-10T12:27:53;11.32;;;3.92;;
9248;SDS011;4660;41.768;26.198;2022-12-10T12:30:59;17.38;;;4.18;;
9248;SDS011;4660;41.768;26.198;2022-12-10T12:36:47;16.48;;;4.38;;
9248;SDS011;4660;41.768;26.198;2022-12-10T12:45:04;16.10;;;3.92;;
9248;SDS011;4660;41.768;26.198;2022-12-10T12:51:39;11.57;;;3.95;;
9248;SDS011;4660;41.768;26.198;2022-12-10T12:54:19;14.13;;;4.53;;
9248;SDS011;4660;41.768;26.198;2022-12-10T13:05:01;15.68;;;5.18;;
9248;SDS011;4660;41.768;26.198;2022-12-10T13:10:58;16.70;;;4.13;;
9248;SDS011;4660;41.768;26.198;2022-12-10T13:24:06;12.70;;;4.30;;
9248;SDS011;4660;41.768;26.198;2022-12-10T13:27:53;22.00;;;7.25;;
9248;SDS011;4660;41.768;26.198;2022-12-10T13:33:52;13.38;;;4.15;;
9248;SDS011;4660;41.768;26.198;2022-12-10T13:37:03;12.35;;;4.07;;
9248;SDS011;4660;41.768;26.198;2022-12-10T13:50:20;17.08;;;6.22;;
9248;SDS011;4660;41.768;26.198;2022-12-10T14:07:12;14.15;;;4.72;;
9248;SDS011;4660;41.768;26.198;2022-12-10T14:10:26;17.17;;;5.60;;
9248;SDS011;4660;41.768;26.198;2022-12-10T14:18:25;15.75;;;5.47;;
9248;SDS011;4660;41.768;26.198;2022-12-10T14:21:06;14.55;;;5.43;;
9248;SDS011;4660;41.768;26.198;2022-12-10T14:37:14;17.63;;;5.17;;
9248;SDS011;4660;41.768;26.198;2022-12-10T14:39:45;20.93;;;6.10;;
9248;SDS011;4660;41.768;26.198;2022-12-10T14:42:56;19.70;;;6.50;;
9248;SDS011;4660;41.768;26.198;2022-12-10T14:45:47;17.98;;;5.78;;
9248;SDS011;4660;41.768;26.198;2022-12-10T14:48:26;14.68;;;5.88;;
9248;SDS011;4660;41.768;26.198;2022-12-10T14:50:53;20.07;;;5.97;;
9248;SDS011;4660;41.768;26.198;2022-12-10T14:53:28;27.75;;;7.28;;
9248;SDS011;4660;41.768;26.198;2022-12-10T14:56:03;21.70;;;8.47;;
9248;SDS011;4660;41.768;26.198;2022-12-10T15:01:16;16.05;;;5.57;;
9248;SDS011;4660;41.768;26.198;2022-12-10T15:04:38;25.03;;;6.90;;
9248;SDS011;4660;41.768;26.198;2022-12-10T15:10:02;18.30;;;6.57;;
9248;SDS011;4660;41.768;26.198;2022-12-10T15:12:44;16.33;;;6.20;;
9248;SDS011;4660;41.768;26.198;2022-12-10T15:15:17;22.57;;;5.97;;
9248;SDS011;4660;41.768;26.198;2022-12-10T15:18:07;16.95;;;5.32;;
9248;SDS011;4660;41.768;26.198;2022-12-10T15:24:13;25.08;;;7.20;;
9248;SDS011;4660;41.768;26.198;2022-12-10T15:27:21;24.90;;;7.38;;
9248;SDS011;4660;41.768;26.198;2022-12-10T15:29:54;19.50;;;7.17;;
9248;SDS011;4660;41.768;26.198;2022-12-10T15:32:28;26.33;;;7.05;;
9248;SDS011;4660;41.768;26.198;2022-12-10T15:35:54;22.37;;;6.77;;
9248;SDS011;4660;41.768;26.198;2022-12-10T15:38:31;24.40;;;8.53;;
9248;SDS011;4660;41.768;26.198;2022-12-10T15:41:22;23.30;;;7.13;;
9248;SDS011;4660;41.768;26.198;2022-12-10T15:44:56;22.20;;;8.03;;
9248;SDS011;4660;41.768;26.198;2022-12-10T15:47:17;24.37;;;8.20;;
9248;SDS011;4660;41.768;26.198;2022-12-10T15:49:46;17.43;;;7.67;;
9248;SDS011;4660;41.768;26.198;2022-12-10T15:53:02;27.63;;;9.17;;
9248;SDS011;4660;41.768;26.198;2022-12-10T15:55:39;32.17;;;9.87;;
9248;SDS011;4660;41.768;26.198;2022-12-10T15:58:35;26.80;;;11.03;;
9248;SDS011;4660;41.768;26.198;2022-12-10T16:04:03;25.90;;;10.65;;
9248;SDS011;4660;41.768;26.198;2022-12-10T16:06:31;30.53;;;12.50;;
9248;SDS011;4660;41.768;26.198;2022-12-10T16:09:03;31.87;;;12.53;;
9248;SDS011;4660;41.768;26.198;2022-12-10T16:12:10;29.67;;;12.43;;
9248;SDS011;4660;41.768;26.198;2022-12-10T16:14:47;25.98;;;10.88;;
9248;SDS011;4660;41.768;26.198;2022-12-10T16:17:35;31.23;;;11.47;;
9248;SDS011;4660;41.768;26.198;2022-12-10T16:20:31;30.53;;;11.37;;
9248;SDS011;4660;41.768;26.198;2022-12-10T16:23:04;34.80;;;13.53;;
9248;SDS011;4660;41.768;26.198;2022-12-10T16:25:33;33.63;;;14.10;;
9248;SDS011;4660;41.768;26.198;2022-12-10T16:28:23;31.10;;;14.03;;
9248;SDS011;4660;41.768;26.198;2022-12-10T16:30:54;31.30;;;13.37;;
9248;SDS011;4660;41.768;26.198;2022-12-10T16:33:43;27.63;;;12.63;;
9248;SDS011;4660;41.768;26.198;2022-12-10T16:36:46;31.90;;;12.17;;
9248;SDS011;4660;41.768;26.198;2022-12-10T16:39:26;26.33;;;11.63;;
9248;SDS011;4660;41.768;26.198;2022-12-10T16:42:39;31.03;;;10.80;;
9248;SDS011;4660;41.768;26.198;2022-12-10T16:45:14;34.87;;;11.57;;
9248;SDS011;4660;41.768;26.198;2022-12-10T16:48:06;26.97;;;9.70;;
9248;SDS011;4660;41.768;26.198;2022-12-10T16:50:39;25.00;;;10.27;;
9248;SDS011;4660;41.768;26.198;2022-12-10T16:53:29;25.30;;;10.20;;
9248;SDS011;4660;41.768;26.198;2022-12-10T16:56:22;34.93;;;10.90;;
9248;SDS011;4660;41.768;26.198;2022-12-10T16:59:10;26.20;;;11.00;;
9248;SDS011;4660;41.768;26.198;2022-12-10T17:01:55;29.17;;;10.47;;
9248;SDS011;4660;41.768;26.198;2022-12-10T17:04:44;24.47;;;9.87;;
9248;SDS011;4660;41.768;26.198;2022-12-10T17:07:15;25.23;;;10.33;;
9248;SDS011;4660;41.768;26.198;2022-12-10T17:09:49;23.03;;;10.83;;
9248;SDS011;4660;41.768;26.198;2022-12-10T17:12:54;26.97;;;8.83;;
9248;SDS011;4660;41.768;26.198;2022-12-10T17:16:08;20.48;;;9.88;;
9248;SDS011;4660;41.768;26.198;2022-12-10T17:18:48;28.43;;;12.33;;
9248;SDS011;4660;41.768;26.198;2022-12-10T17:21:19;25.70;;;11.57;;
9248;SDS011;4660;41.768;26.198;2022-12-10T17:24:29;29.13;;;10.63;;
9248;SDS011;4660;41.768;26.198;2022-12-10T17:27:41;34.45;;;16.42;;
9248;SDS011;4660;41.768;26.198;2022-12-10T17:30:34;29.17;;;14.33;;
9248;SDS011;4660;41.768;26.198;2022-12-10T17:33:01;27.83;;;14.80;;
9248;SDS011;4660;41.768;26.198;2022-12-10T17:36:13;27.17;;;11.87;;
9248;SDS011;4660;41.768;26.198;2022-12-10T17:39:20;22.27;;;10.10;;
9248;SDS011;4660;41.768;26.198;2022-12-10T17:41:54;22.03;;;8.73;;
9248;SDS011;4660;41.768;26.198;2022-12-10T17:44:25;14.33;;;6.87;;
9248;SDS011;4660;41.768;26.198;2022-12-10T17:46:54;21.83;;;9.27;;
9248;SDS011;4660;41.768;26.198;2022-12-10T17:49:22;25.30;;;12.27;;
9248;SDS011;4660;41.768;26.198;2022-12-10T17:51:51;23.73;;;10.43;;
9248;SDS011;4660;41.768;26.198;2022-12-10T17:54:31;25.27;;;9.40;;
9248;SDS011;4660;41.768;26.198;2022-12-10T17:57:18;32.03;;;8.27;;
9248;SDS011;4660;41.768;26.198;2022-12-10T17:59:49;19.03;;;6.93;;
9248;SDS011;4660;41.768;26.198;2022-12-10T18:02:15;21.83;;;7.57;;
9248;SDS011;4660;41.768;26.198;2022-12-10T18:04:49;18.48;;;7.55;;
9248;SDS011;4660;41.768;26.198;2022-12-10T18:07:26;13.03;;;6.00;;
9248;SDS011;4660;41.768;26.198;2022-12-10T18:09:56;14.23;;;6.10;;
9248;SDS011;4660;41.768;26.198;2022-12-10T18:12:54;17.23;;;6.17;;
9248;SDS011;4660;41.768;26.198;2022-12-10T18:15:21;16.50;;;6.90;;
9248;SDS011;4660;41.768;26.198;2022-12-10T18:20:34;30.97;;;10.60;;
9248;SDS011;4660;41.768;26.198;2022-12-10T18:23:03;28.10;;;11.23;;
9248;SDS011;4660;41.768;26.198;2022-12-10T18:25:33;24.10;;;9.80;;
9248;SDS011;4660;41.768;26.198;2022-12-10T18:28:01;29.20;;;10.63;;
9248;SDS011;4660;41.768;26.198;2022-12-10T18:31:05;36.40;;;12.23;;
9248;SDS011;4660;41.768;26.198;2022-12-10T18:34:02;18.43;;;8.67;;
9248;SDS011;4660;41.768;26.198;2022-12-10T18:36:34;18.07;;;6.33;;
9248;SDS011;4660;41.768;26.198;2022-12-10T18:39:12;17.07;;;6.60;;
9248;SDS011;4660;41.768;26.198;2022-12-10T18:41:51;13.97;;;5.53;;
9248;SDS011;4660;41.768;26.198;2022-12-10T18:44:21;14.27;;;5.70;;
9248;SDS011;4660;41.768;26.198;2022-12-10T18:46:50;15.97;;;4.80;;
9248;SDS011;4660;41.768;26.198;2022-12-10T18:49:18;13.57;;;4.65;;
9248;SDS011;4660;41.768;26.198;2022-12-10T18:51:48;22.20;;;5.90;;
9248;SDS011;4660;41.768;26.198;2022-12-10T18:54:15;13.70;;;5.40;;